KFLL

Fort Lauderdale / Hollywood International Airport

Fort Lauderdale, Florida, USA
METAR KFLL 230953Z 08008KT 10SM SCT032 SCT250 25/21 A3003 RMK AO2 SLP168 T02500206
Observed Flight Rules
Oct-23 @ 09:53 UTC (40 minutes ago) Visual Flight Rules
Wind Visibility Clouds
80° at 8 knots 10 miles
  • Scattered at 3,200' AGL
  • Scattered at 25,000' AGL
Temperatures Readings
Current 25°C / 77°F
Dewpoint 21°C / 70°F
Humidity 79%
Altimeter 30.03" Hg
Pressure 1016.8 hPa
Elevation 3
METAR KFLL 230953Z 08008KT 10SM SCT032 SCT250 25/21 A3003 RMK AO2 SLP168 T02500206
Observed Flight Rules
Oct-23 @ 09:53 UTC
(40 minutes ago)
VFR
Wind Visibility
80° at 8 knots 10 miles
Clouds
  • Scattered at 3,200' AGL
  • Scattered at 25,000' AGL
Temperature Dewpoint
25°C / 77°F 21°C / 70°F
Humidity Altimeter Pressure
79% 30.03" Hg 1016.8 hPa